Time;durP1;ratioP1;P1;durP2;ratioP2;P2;SDS_P1;SDS_P2;PMS_P1;PMS_P2;Temp;Humidity;BMP_temperature;BMP_pressure;BME280_temperature;BME280_humidity;BME280_pressure;Samples;Min_cycle;Max_cycle;Signal;HPM_P1;HPM_P2
2023/07/21 00:00:21;;;;;;;2.70;2.22;;;;;;;12.61;100.00;101005.34;5080900;28;20051;-56
2023/07/21 00:02:48;;;;;;;5.40;3.13;;;;;;;12.59;100.00;100994.81;5087743;28;20072;-56
2023/07/21 00:05:15;;;;;;;14.25;4.10;;;;;;;12.53;100.00;100996.91;5081260;28;20052;-56
2023/07/21 00:07:42;;;;;;;12.63;3.47;;;;;;;12.44;100.00;100995.56;5090084;28;20112;-56
2023/07/21 00:10:10;;;;;;;5.63;3.00;;;;;;;12.42;100.00;100992.13;5083326;28;20140;-56
2023/07/21 00:12:48;;;;;;;6.22;2.30;;;;;;;12.34;100.00;100989.00;5089003;28;20473;-56
2023/07/21 00:15:17;;;;;;;4.32;2.47;;;;;;;12.34;100.00;100989.00;5084443;28;20045;-56
2023/07/21 00:17:47;;;;;;;8.77;3.78;;;;;;;12.40;100.00;100994.00;5086961;28;20058;-56
2023/07/21 00:20:19;;;;;;;6.00;3.97;;;;;;;12.44;100.00;100990.25;5073373;28;20087;-56
2023/07/21 00:22:46;;;;;;;8.98;4.10;;;;;;;12.44;100.00;100987.59;5084912;28;20154;-56
2023/07/21 00:25:13;;;;;;;8.15;4.10;;;;;;;12.42;100.00;100987.72;5078231;28;20063;-56
2023/07/21 00:27:41;;;;;;;5.65;3.60;;;;;;;12.41;100.00;100979.84;5092718;28;20548;-56
2023/07/21 00:30:09;;;;;;;5.07;2.80;;;;;;;12.36;100.00;100981.81;5086551;28;20083;-56
2023/07/21 00:32:36;;;;;;;4.40;2.80;;;;;;;12.32;100.00;100981.13;5085348;28;20052;-56
2023/07/21 00:35:08;;;;;;;4.40;2.40;;;;;;;12.29;100.00;100975.97;5082466;28;20066;-56
2023/07/21 00:37:34;;;;;;;8.70;2.30;;;;;;;12.26;100.00;100977.00;5083711;28;20048;-56
2023/07/21 00:40:04;;;;;;;5.03;2.83;;;;;;;12.21;100.00;100973.72;5079601;28;20048;-56
2023/07/21 00:42:31;;;;;;;3.40;1.80;;;;;;;12.12;100.00;100982.09;5079736;28;20064;-56
2023/07/21 00:44:57;;;;;;;4.32;2.20;;;;;;;12.03;100.00;100990.50;5083727;28;20054;-56
2023/07/21 00:47:25;;;;;;;4.10;2.67;;;;;;;11.97;100.00;100991.66;5087795;28;20135;-56
2023/07/21 00:49:52;;;;;;;2.70;2.00;;;;;;;11.94;100.00;100992.66;5079387;28;20580;-56
2023/07/21 00:52:19;;;;;;;3.25;2.00;;;;;;;11.90;100.00;100984.88;5086594;28;20743;-56
2023/07/21 00:54:47;;;;;;;7.05;3.38;;;;;;;11.90;100.00;100993.72;5081683;28;20410;-56
2023/07/21 00:57:15;;;;;;;5.45;2.65;;;;;;;11.84;100.00;100986.03;5077034;28;20136;-56
2023/07/21 00:59:45;;;;;;;3.95;2.58;;;;;;;11.80;100.00;100984.47;5087367;28;20051;-56
2023/07/21 01:02:11;;;;;;;5.90;3.88;;;;;;;11.74;100.00;100995.38;5081603;28;20050;-56
2023/07/21 01:04:39;;;;;;;4.55;3.25;;;;;;;11.70;100.00;100985.81;5080738;28;20121;-56
2023/07/21 01:07:08;;;;;;;4.22;2.40;;;;;;;11.64;100.00;100988.75;5078008;28;20056;-56
2023/07/21 01:09:36;;;;;;;7.03;3.05;;;;;;;11.57;100.00;100994.34;5098422;28;20048;-56
2023/07/21 01:12:05;;;;;;;3.30;2.42;;;;;;;11.57;100.00;101001.41;5087444;28;20048;-56
2023/07/21 01:14:34;;;;;;;5.18;2.42;;;;;;;11.64;100.00;100988.75;5088498;28;20044;-56
2023/07/21 01:17:02;;;;;;;4.80;2.33;;;;;;;11.62;100.00;100990.63;5078347;28;20044;-56
2023/07/21 01:19:30;;;;;;;3.90;2.42;;;;;;;11.62;100.00;100995.91;5087441;28;20052;-56
2023/07/21 01:22:09;;;;;;;9.32;2.70;;;;;;;11.59;100.00;100996.94;5075533;28;20113;-56
2023/07/21 01:24:49;;;;;;;5.43;2.83;;;;;;;11.56;100.00;100992.63;5088423;28;20456;-56
2023/07/21 01:27:21;;;;;;;15.60;3.38;;;;;;;11.55;100.00;100996.19;5086115;28;20059;-56
2023/07/21 01:29:49;;;;;;;6.90;2.05;;;;;;;11.50;100.00;100995.53;5086230;28;20592;-56
2023/07/21 01:32:18;;;;;;;4.97;2.60;;;;;;;11.47;100.00;100998.31;5093527;28;20052;-56
2023/07/21 01:34:45;;;;;;;4.93;2.33;;;;;;;11.43;100.00;101002.06;5090192;28;20058;-56
2023/07/21 01:37:13;;;;;;;3.58;2.00;;;;;;;11.41;100.00;100997.75;5088270;28;20048;-56
2023/07/21 01:39:41;;;;;;;4.65;2.63;;;;;;;11.35;100.00;100993.59;5077592;28;20040;-56
2023/07/21 01:42:08;;;;;;;6.88;2.78;;;;;;;11.30;100.00;100996.47;5088189;28;20052;-56
2023/07/21 01:44:35;;;;;;;4.38;2.47;;;;;;;11.24;100.00;100995.88;5078720;28;20052;-56
2023/07/21 01:47:02;;;;;;;5.20;2.50;;;;;;;11.21;100.00;100991.56;5087010;28;20087;-56
2023/07/21 01:49:30;;;;;;;4.78;2.40;;;;;;;11.15;100.00;100989.22;5087472;28;20051;-56
2023/07/21 01:51:58;;;;;;;4.50;2.15;;;;;;;11.02;100.00;100994.19;5083306;28;20487;-56
2023/07/21 01:54:31;;;;;;;5.95;3.35;;;;;;;10.99;100.00;100997.81;5081275;28;20050;-56
2023/07/21 01:57:03;;;;;;;4.22;2.60;;;;;;;11.00;100.00;101006.59;5080841;28;20144;-56
2023/07/21 01:59:30;;;;;;;8.13;2.50;;;;;;;11.02;100.00;101010.06;5092381;28;20135;-56
2023/07/21 02:01:57;;;;;;;4.20;2.58;;;;;;;10.99;100.00;101002.25;5088175;28;20058;-56
2023/07/21 02:04:24;;;;;;;4.40;2.88;;;;;;;11.00;100.00;101003.94;5088160;28;20058;-55
2023/07/21 02:06:50;;;;;;;8.88;2.60;;;;;;;10.96;100.00;101007.66;5084198;28;20047;-56
2023/07/21 02:09:19;;;;;;;5.13;2.95;;;;;;;10.94;100.00;101004.22;5088104;28;20131;-56
2023/07/21 02:11:48;;;;;;;4.53;2.20;;;;;;;11.01;100.00;101003.03;5087984;28;20795;-56
2023/07/21 02:14:15;;;;;;;5.78;2.80;;;;;;;10.96;100.00;101003.22;5087754;28;20135;-57
2023/07/21 02:16:42;;;;;;;5.38;3.17;;;;;;;11.00;100.00;101011.88;5086686;28;20044;-57
2023/07/21 02:19:08;;;;;;;5.10;3.10;;;;;;;10.95;100.00;101016.50;5083245;28;20135;-57
2023/07/21 02:21:35;;;;;;;5.45;3.83;;;;;;;10.90;100.00;101013.22;5089141;28;20048;-57
2023/07/21 02:24:02;;;;;;;3.90;2.42;;;;;;;10.95;100.00;101012.09;5092830;28;20091;-56
2023/07/21 02:26:29;;;;;;;5.57;2.83;;;;;;;10.91;100.00;101004.38;5080532;28;20591;-58
2023/07/21 02:28:55;;;;;;;3.55;2.60;;;;;;;10.91;100.00;101007.00;5077882;28;20147;-56
2023/07/21 02:31:22;;;;;;;5.15;2.47;;;;;;;10.89;100.00;101006.22;5086924;28;20497;-58
2023/07/21 02:33:48;;;;;;;3.90;2.30;;;;;;;10.86;100.00;101001.06;5080763;28;20621;-56
2023/07/21 02:36:16;;;;;;;6.38;2.65;;;;;;;10.90;100.00;101002.63;5087029;28;20135;-56
2023/07/21 02:38:42;;;;;;;8.88;2.63;;;;;;;10.83;100.00;100994.94;5081601;28;20059;-56
2023/07/21 02:41:09;;;;;;;4.10;2.33;;;;;;;10.84;100.00;100999.31;5086111;28;20052;-56
2023/07/21 02:43:36;;;;;;;6.13;3.30;;;;;;;10.83;100.00;100991.47;5085135;28;20063;-56
2023/07/21 02:46:04;;;;;;;5.00;2.70;;;;;;;10.84;100.00;100987.91;5095714;28;20048;-56
2023/07/21 02:48:33;;;;;;;4.00;2.70;;;;;;;10.81;100.00;100983.59;5094243;28;20116;-56
2023/07/21 02:51:00;;;;;;;7.43;2.72;;;;;;;10.81;100.00;100988.03;5085623;28;20095;-56
2023/07/21 02:53:28;;;;;;;7.63;3.83;;;;;;;10.79;100.00;100985.44;5087658;28;20059;-56
2023/07/21 02:55:55;;;;;;;5.50;3.13;;;;;;;10.74;100.00;100982.16;5080156;28;20054;-56
2023/07/21 02:58:26;;;;;;;8.60;2.72;;;;;;;10.71;100.00;100982.28;5087164;28;20138;-56
2023/07/21 03:00:55;;;;;;;7.15;3.13;;;;;;;10.68;100.00;100989.47;5075228;28;20075;-56
2023/07/21 03:03:25;;;;;;;6.13;2.83;;;;;;;10.62;100.00;100990.59;5085040;28;20579;-56
2023/07/21 03:05:52;;;;;;;7.43;3.00;;;;;;;10.63;100.00;100979.94;5083421;28;20044;-56
2023/07/21 03:08:28;;;;;;;5.97;3.30;;;;;;;10.57;100.00;100974.91;5085340;28;20055;-56
2023/07/21 03:10:56;;;;;;;4.50;2.60;;;;;;;10.57;100.00;100980.19;5084204;28;20134;-56
2023/07/21 03:13:24;;;;;;;4.70;2.80;;;;;;;10.59;100.00;100974.84;5089908;28;20071;-56
2023/07/21 03:15:52;;;;;;;4.18;2.80;;;;;;;10.61;100.00;100981.81;5092199;28;20070;-56
2023/07/21 03:18:18;;;;;;;5.28;2.83;;;;;;;10.63;100.00;100984.38;5078546;28;20534;-56
2023/07/21 03:20:45;;;;;;;4.40;2.30;;;;;;;10.66;100.00;100984.25;5080805;28;20058;-56
2023/07/21 03:23:12;;;;;;;10.45;3.30;;;;;;;10.68;100.00;100977.13;5076743;28;20048;-56
2023/07/21 03:25:42;;;;;;;5.50;2.55;;;;;;;10.71;100.00;100982.28;5085653;28;20054;-57
2023/07/21 03:28:09;;;;;;;4.60;2.75;;;;;;;10.73;100.00;100985.69;5074384;28;20040;-56
2023/07/21 03:30:36;;;;;;;3.80;2.42;;;;;;;10.69;100.00;100986.78;5086566;28;20040;-57
2023/07/21 03:33:02;;;;;;;10.98;3.60;;;;;;;10.68;100.00;100992.97;5085385;28;20066;-56
2023/07/21 03:35:29;;;;;;;8.23;2.75;;;;;;;10.61;100.00;100984.44;5088724;28;20051;-57
2023/07/21 03:37:57;;;;;;;7.43;2.58;;;;;;;10.52;100.00;100991.91;5089100;28;20127;-56
2023/07/21 03:40:24;;;;;;;7.13;3.42;;;;;;;10.46;100.00;100988.59;5089459;28;20054;-57
2023/07/21 03:42:51;;;;;;;7.22;2.60;;;;;;;10.41;100.00;100990.56;5089973;28;20074;-56
2023/07/21 03:45:18;;;;;;;6.97;2.92;;;;;;;10.38;100.00;100985.41;5089274;28;20048;-56
2023/07/21 03:47:44;;;;;;;6.03;2.40;;;;;;;10.39;100.00;100981.81;5090637;28;20056;-56
2023/07/21 03:50:11;;;;;;;3.25;2.25;;;;;;;10.36;100.00;100987.22;5083273;28;20056;-55
2023/07/21 03:52:40;;;;;;;4.53;2.45;;;;;;;10.37;100.00;100981.03;5087485;28;20076;-55
2023/07/21 03:55:07;;;;;;;4.03;2.83;;;;;;;10.43;100.00;100972.88;5088429;28;20052;-55
2023/07/21 03:57:35;;;;;;;4.20;1.90;;;;;;;10.52;100.00;100976.03;5089245;28;20093;-55
2023/07/21 04:00:03;;;;;;;7.18;3.67;;;;;;;10.64;100.00;100970.22;5085779;28;20079;-55
2023/07/21 04:02:29;;;;;;;6.90;2.60;;;;;;;10.74;100.00;100970.69;5089814;28;20135;-56
2023/07/21 04:04:56;;;;;;;3.55;2.30;;;;;;;10.86;100.00;100970.19;5086729;28;20537;-55
2023/07/21 04:07:22;;;;;;;6.20;2.45;;;;;;;10.97;100.00;100961.78;5090322;28;20667;-56
2023/07/21 04:09:49;;;;;;;4.45;2.92;;;;;;;11.13;100.00;100956.66;5078963;28;20048;-56
2023/07/21 04:12:16;;;;;;;6.32;2.60;;;;;;;11.21;100.00;100954.53;5087164;28;20552;-56
2023/07/21 04:14:42;;;;;;;5.63;2.50;;;;;;;11.37;100.00;100944.09;5082657;28;20066;-56
2023/07/21 04:17:09;;;;;;;3.50;2.15;;;;;;;11.51;100.00;100936.41;5086665;28;20131;-55
2023/07/21 04:19:35;;;;;;;5.20;2.58;;;;;;;11.61;100.00;100933.31;5089847;28;20131;-55
2023/07/21 04:22:02;;;;;;;6.60;2.60;;;;;;;11.75;100.00;100925.56;5083055;28;20051;-55
2023/07/21 04:24:28;;;;;;;5.80;2.20;;;;;;;11.91;100.00;100918.63;5080307;28;20048;-55
2023/07/21 04:26:55;;;;;;;4.68;2.60;;;;;;;12.06;100.00;100926.75;5082096;28;20105;-55
2023/07/21 04:29:21;;;;;;;5.18;2.50;;;;;;;12.16;100.00;100917.41;5088542;28;20044;-56
2023/07/21 04:32:02;;;;;;;8.40;2.78;;;;;;;12.30;100.00;100909.63;5078846;28;20048;-56
2023/07/21 04:34:29;;;;;;;26.23;2.78;;;;;;;12.44;100.00;100910.72;5089855;28;20081;-56
2023/07/21 04:36:56;;;;;;;4.55;2.30;;;;;;;12.54;100.00;100917.31;5080480;28;20883;-56
2023/07/21 04:39:22;;;;;;;8.18;2.83;;;;;;;12.60;100.00;100910.81;5102285;28;20052;-56
2023/07/21 04:41:49;;;;;;;5.22;2.65;;;;;;;12.68;100.00;100908.63;5084189;28;20054;-56
2023/07/21 04:44:15;;;;;;;11.93;2.80;;;;;;;12.76;100.00;100900.28;5089530;28;20594;-56
2023/07/21 04:46:42;;;;;;;5.40;2.95;;;;;;;12.83;100.00;100896.34;5084490;28;20101;-56
2023/07/21 04:49:13;;;;;;;4.85;2.70;;;;;;;12.83;100.00;100896.34;5087344;28;20134;-56
2023/07/21 04:51:39;;;;;;;6.88;3.17;;;;;;;12.85;100.00;100894.50;5078781;28;20500;-57
2023/07/21 04:54:07;;;;;;;6.55;2.47;;;;;;;12.91;100.00;100902.09;5086511;28;20049;-55
2023/07/21 04:56:33;;;;;;;4.78;2.55;;;;;;;12.93;100.00;100900.25;5089088;28;20049;-56
2023/07/21 04:59:00;;;;;;;3.58;2.60;;;;;;;12.98;100.00;100899.97;5081133;28;20127;-56
2023/07/21 05:01:26;;;;;;;9.93;3.00;;;;;;;13.05;100.00;100893.41;5090227;28;20050;-57
2023/07/21 05:03:53;;;;;;;4.47;2.33;;;;;;;13.12;100.00;100896.59;5086434;28;20138;-56
2023/07/21 05:06:19;;;;;;;6.03;2.72;;;;;;;13.21;100.00;100883.69;5085425;28;20439;-56
2023/07/21 05:08:47;;;;;;;7.28;2.28;;;;;;;13.24;100.00;100895.94;5082427;28;20058;-56
2023/07/21 05:11:13;;;;;;;6.80;2.17;;;;;;;13.32;100.00;100891.09;5089217;28;20052;-56
2023/07/21 05:13:40;;;;;;;4.70;2.33;;;;;;;13.37;100.00;100893.47;5076018;28;20079;-56
2023/07/21 05:16:06;;;;;;;6.95;3.00;;;;;;;13.49;100.00;100899.94;5086851;28;20182;-56
2023/07/21 05:18:33;;;;;;;3.55;1.98;;;;;;;13.52;100.00;100889.16;5081013;28;20615;-56
2023/07/21 05:21:00;;;;;;;4.28;2.58;;;;;;;13.60;100.00;100886.91;5092431;28;20077;-55
2023/07/21 05:23:26;;;;;;;7.50;2.60;;;;;;;13.71;100.00;100889.81;5089208;28;20135;-56
2023/07/21 05:26:00;;;;;;;10.27;2.80;;;;;;;13.68;100.00;100883.81;5082043;28;20484;-56
2023/07/21 05:28:28;;;;;;;7.45;2.47;;;;;;;13.71;100.00;100879.16;5089416;28;20055;-56
2023/07/21 05:30:55;;;;;;;7.00;2.63;;;;;;;13.79;100.00;100875.25;5082075;28;20140;-55
2023/07/21 05:33:22;;;;;;;6.75;2.35;;;;;;;13.89;100.00;100876.41;5086979;28;20052;-55
2023/07/21 05:35:48;;;;;;;4.65;2.10;;;;;;;13.81;100.00;100879.50;5081706;28;20130;-56
2023/07/21 05:38:15;;;;;;;9.35;2.55;;;;;;;13.83;100.00;100879.41;5089267;28;20070;-56
2023/07/21 05:40:41;;;;;;;13.52;3.00;;;;;;;13.86;100.00;100872.16;5087640;28;20048;-56
2023/07/21 05:43:08;;;;;;;5.18;2.75;;;;;;;13.79;100.00;100877.91;5079680;28;20084;-56
2023/07/21 05:45:39;;;;;;;7.50;3.20;;;;;;;13.74;100.00;100868.38;5083890;28;20044;-56
2023/07/21 05:48:09;;;;;;;6.88;3.80;;;;;;;13.83;100.00;100874.09;5097177;28;20054;-56
2023/07/21 05:50:37;;;;;;;6.65;3.03;;;;;;;13.89;100.00;100871.94;5081365;28;20131;-56
2023/07/21 05:53:04;;;;;;;7.15;2.40;;;;;;;14.03;100.00;100879.13;5083970;28;20049;-56
2023/07/21 05:55:30;;;;;;;5.90;2.47;;;;;;;14.16;100.00;100883.75;5086949;28;20129;-56
2023/07/21 05:57:57;;;;;;;10.05;2.90;;;;;;;14.08;100.00;100876.22;5082841;28;20460;-56
2023/07/21 06:00:24;;;;;;;5.63;2.35;;;;;;;14.21;100.00;100881.69;5077438;28;20044;-56
2023/07/21 06:02:52;;;;;;;5.88;2.22;;;;;;;14.37;100.00;100882.47;5081508;28;20048;-55
2023/07/21 06:05:18;;;;;;;5.35;2.33;;;;;;;14.43;100.00;100887.41;5085310;28;20052;-56
2023/07/21 06:07:45;;;;;;;3.83;1.95;;;;;;;14.45;100.00;100880.22;5082577;28;20135;-56
2023/07/21 06:10:12;;;;;;;6.25;1.88;;;;;;;14.56;100.00;100876.91;5089790;28;20048;-57
2023/07/21 06:12:39;;;;;;;4.03;2.33;;;;;;;14.52;100.00;100882.53;5088811;28;20052;-56
2023/07/21 06:15:08;;;;;;;5.75;2.03;;;;;;;14.61;100.00;100876.66;5088522;28;20043;-56
2023/07/21 06:17:34;;;;;;;5.75;2.20;;;;;;;14.64;100.00;100874.66;5075667;28;20761;-56
2023/07/21 06:20:01;;;;;;;7.20;1.75;;;;;;;14.61;100.00;100880.16;5086418;28;20043;-56
2023/07/21 06:22:28;;;;;;;17.45;3.22;;;;;;;14.61;100.00;100872.19;5087388;28;20591;-56
2023/07/21 06:24:55;;;;;;;14.20;2.33;;;;;;;14.65;100.00;100870.22;5087785;28;20063;-56
2023/07/21 06:27:22;;;;;;;6.80;1.65;;;;;;;14.70;100.00;100872.59;5086135;28;20040;-56
2023/07/21 06:29:48;;;;;;;9.77;2.78;;;;;;;14.82;100.00;100867.34;5075033;28;20058;-56
2023/07/21 06:32:15;;;;;;;7.85;1.98;;;;;;;14.70;100.00;100859.31;5087980;28;20102;-57
2023/07/21 06:34:42;;;;;;;9.43;2.03;;;;;;;14.73;100.00;100862.63;5089426;28;20135;-57
2023/07/21 06:37:08;;;;;;;10.25;3.33;;;;;;;14.74;100.00;100864.31;5084316;28;20317;-56
2023/07/21 06:39:35;;;;;;;7.95;2.65;;;;;;;14.75;100.00;100868.69;5087105;28;20070;-56
2023/07/21 06:42:01;;;;;;;13.35;2.55;;;;;;;14.75;100.00;100868.69;5076671;28;20048;-56
2023/07/21 06:44:28;;;;;;;10.38;2.53;;;;;;;14.69;100.00;100861.09;5085855;28;20494;-56
2023/07/21 06:46:54;;;;;;;5.40;2.03;;;;;;;14.70;100.00;100873.44;5084754;28;20579;-56
2023/07/21 06:49:21;;;;;;;30.17;2.47;;;;;;;14.68;100.00;100870.88;5086894;28;20044;-57
2023/07/21 06:51:47;;;;;;;6.55;2.10;;;;;;;14.67;100.00;100874.47;5081114;28;20054;-55
2023/07/21 06:54:14;;;;;;;10.15;2.47;;;;;;;14.67;100.00;100871.81;5086769;28;20048;-55
2023/07/21 06:56:40;;;;;;;12.48;2.35;;;;;;;14.77;100.00;100874.78;5085321;28;20140;-57
2023/07/21 06:59:07;;;;;;;14.73;2.28;;;;;;;14.79;100.00;100872.88;5084483;28;20128;-57
2023/07/21 07:01:34;;;;;;;13.18;2.40;;;;;;;14.86;100.00;100862.72;5086948;28;20123;-56
2023/07/21 07:04:00;;;;;;;10.00;1.90;;;;;;;14.99;100.00;100862.78;5076261;28;20047;-56
2023/07/21 07:06:30;;;;;;;4.07;1.83;;;;;;;15.21;100.00;100863.16;5083857;28;20058;-57
2023/07/21 07:08:57;;;;;;;4.93;2.03;;;;;;;15.42;100.00;100854.75;5085977;28;20534;-57
2023/07/21 07:11:23;;;;;;;11.73;1.80;;;;;;;15.45;100.00;100851.91;5084426;28;20101;-56
2023/07/21 07:13:51;;;;;;;6.95;2.30;;;;;;;15.63;100.00;100856.97;5085812;28;20056;-56
2023/07/21 07:16:17;;;;;;;5.75;2.15;;;;;;;15.77;100.00;100855.16;5083423;28;20048;-56
2023/07/21 07:18:44;;;;;;;4.95;2.10;;;;;;;15.88;100.00;100850.94;5083790;28;20153;-56
2023/07/21 07:21:12;;;;;;;7.00;2.45;;;;;;;16.05;100.00;100857.78;5084890;28;20040;-56
2023/07/21 07:23:39;;;;;;;6.53;1.90;;;;;;;16.13;100.00;100850.13;5079235;28;20086;-56
2023/07/21 07:26:06;;;;;;;9.48;1.83;;;;;;;16.07;100.00;100850.53;5088244;28;20044;-56
2023/07/21 07:28:33;;;;;;;6.32;1.67;;;;;;;16.26;100.00;100840.34;5093410;28;20084;-56
2023/07/21 07:31:06;;;;;;;11.07;2.05;;;;;;;16.32;100.00;100845.25;5083794;28;20047;-57
2023/07/21 07:33:33;;;;;;;7.32;2.08;;;;;;;16.41;100.00;100834.91;5085168;28;20060;-56
2023/07/21 07:35:59;;;;;;;7.20;2.30;;;;;;;16.47;100.00;100843.34;5089510;28;20139;-57
2023/07/21 07:38:28;;;;;;;7.55;1.95;;;;;;;16.41;100.00;100835.78;5088921;28;20403;-55
2023/07/21 07:41:03;;;;;;;4.40;1.02;;;;;;;16.51;100.00;100838.69;5083671;28;20047;-56
2023/07/21 07:43:29;;;;;;;12.70;1.52;;;;;;;16.67;100.00;100839.31;5085999;28;20135;-56
2023/07/21 07:45:59;;;;;;;5.25;1.33;;;;;;;16.89;100.00;100837.84;5084407;28;20139;-56
2023/07/21 07:48:25;;;;;;;7.82;1.42;;;;;;;16.96;100.00;100832.91;5086520;28;20658;-56
2023/07/21 07:50:53;;;;;;;5.78;1.27;;;;;;;17.03;100.00;100824.38;5083872;28;20056;-57
2023/07/21 07:53:20;;;;;;;5.07;1.35;;;;;;;16.92;100.00;100826.94;5086709;28;20072;-56
2023/07/21 07:55:46;;;;;;;6.75;1.20;;;;;;;16.95;100.00;100826.72;5083960;28;20087;-57
2023/07/21 07:58:13;;;;;;;3.97;1.52;;;;;;;17.23;100.00;100830.09;5084658;28;20733;-56
2023/07/21 08:00:44;;;;;;;4.35;1.25;;;;;;;17.43;100.00;100826.78;5083874;28;20055;-57
2023/07/21 08:03:11;;;;;;;6.13;1.23;;;;;;;17.40;100.00;100826.19;5094175;28;20048;-56
2023/07/21 08:05:39;;;;;;;4.10;1.65;;;;;;;17.42;100.00;100829.59;5078581;28;20047;-56
2023/07/21 08:08:07;;;;;;;9.73;1.80;;;;;;;17.43;100.00;100824.13;5087662;28;20048;-56
2023/07/21 08:10:38;;;;;;;5.63;1.65;;;;;;;17.48;100.00;100838.97;5082037;28;20062;-55
2023/07/21 08:13:05;;;;;;;4.78;1.65;;;;;;;17.35;100.00;100823.00;5085375;28;20081;-55
2023/07/21 08:15:31;;;;;;;4.28;1.23;;;;;;;17.51;100.00;100820.06;5085284;28;20143;-56
2023/07/21 08:17:58;;;;;;;5.03;1.60;;;;;;;17.37;100.00;100819.22;5083594;28;20139;-56
2023/07/21 08:20:25;;;;;;;3.30;1.45;;;;;;;17.30;100.00;100820.66;5085905;28;20044;-56
2023/07/21 08:22:52;;;;;;;3.63;1.20;;;;;;;17.32;100.00;100817.88;5087573;28;20062;-56
2023/07/21 08:25:19;;;;;;;7.05;1.98;;;;;;;17.38;100.00;100818.28;5087779;28;20076;-56
2023/07/21 08:27:46;;;;;;;3.20;1.02;;;;;;;17.45;100.00;100828.50;5088184;28;20063;-55
2023/07/21 08:30:14;;;;;;;5.63;1.25;;;;;;;17.55;100.00;100821.53;5089937;28;20048;-56
2023/07/21 08:32:41;;;;;;;2.88;1.15;;;;;;;17.48;100.00;100822.94;5089380;28;20052;-56
2023/07/21 08:35:09;;;;;;;3.97;1.15;;;;;;;17.59;100.00;100820.34;5085975;28;20570;-56
2023/07/21 08:37:38;;;;;;;5.38;1.42;;;;;;;17.53;100.00;100831.47;5088547;28;20040;-55
2023/07/21 08:40:06;;;;;;;3.28;1.08;;;;;;;17.51;100.00;100830.75;5086811;28;20044;-56
2023/07/21 08:42:33;;;;;;;4.38;1.42;;;;;;;17.71;100.00;100832.78;5089711;28;20087;-56
2023/07/21 08:45:04;;;;;;;8.57;1.40;;;;;;;17.86;100.00;100816.56;5085046;28;20058;-55
2023/07/21 08:47:32;;;;;;;7.88;1.10;;;;;;;17.78;100.00;100814.47;5092301;28;20514;-56
2023/07/21 08:49:59;;;;;;;3.00;1.75;;;;;;;17.70;100.00;100823.03;5086445;28;20106;-56
2023/07/21 08:52:25;;;;;;;4.18;1.40;;;;;;;17.71;100.00;100819.41;5083798;28;20128;-56
2023/07/21 08:54:53;;;;;;;5.20;1.60;;;;;;;17.64;100.00;100820.84;5084780;28;20048;-56
2023/07/21 08:57:20;;;;;;;4.90;0.90;;;;;;;17.64;100.00;100820.84;5089332;28;20043;-56
2023/07/21 08:59:47;;;;;;;4.60;1.65;;;;;;;17.55;100.00;100824.19;5086410;28;20488;-56
2023/07/21 09:02:13;;;;;;;3.05;1.30;;;;;;;17.48;100.00;100828.28;5087747;28;20056;-56
2023/07/21 09:04:45;;;;;;;2.53;1.15;;;;;;;17.39;100.00;100822.66;5087355;28;20048;-56
2023/07/21 09:07:13;;;;;;;1.77;1.08;;;;;;;17.47;100.00;100824.75;5086917;28;20131;-56
2023/07/21 09:09:48;;;;;;;5.00;1.10;;;;;;;17.38;100.00;100823.63;5088209;28;20460;-56
2023/07/21 09:12:15;;;;;;;5.88;1.20;;;;;;;17.31;100.00;100822.38;5081575;28;20036;-56
2023/07/21 09:14:44;;;;;;;5.30;1.25;;;;;;;17.43;100.00;100821.44;5089220;28;20070;-56
2023/07/21 09:17:12;;;;;;;4.57;1.23;;;;;;;17.50;100.00;100823.69;5086421;28;20058;-56
2023/07/21 09:19:45;;;;;;;8.35;1.33;;;;;;;17.29;100.00;100828.78;5096163;28;20523;-56
2023/07/21 09:22:12;;;;;;;2.67;1.25;;;;;;;17.23;100.00;100830.94;5087875;28;20060;-56
2023/07/21 09:24:49;;;;;;;4.25;1.30;;;;;;;17.32;100.00;100824.06;5093189;28;20039;-56
2023/07/21 09:27:18;;;;;;;1.70;0.82;;;;;;;17.23;100.00;100822.06;5086307;28;20048;-56
2023/07/21 09:29:46;;;;;;;3.20;1.23;;;;;;;17.28;100.00;100827.94;5085147;28;20070;-56
2023/07/21 09:32:19;;;;;;;4.38;1.20;;;;;;;17.22;100.00;100825.69;5088405;28;20051;-56
2023/07/21 09:34:54;;;;;;;5.88;1.38;;;;;;;17.26;100.00;100819.16;5086912;28;20638;-55
2023/07/21 09:37:23;;;;;;;4.53;1.77;;;;;;;17.20;100.00;100827.63;5079133;28;20119;-56
2023/07/21 09:40:01;;;;;;;2.15;1.45;;;;;;;17.23;100.00;100832.75;5073812;28;20051;-56
2023/07/21 09:42:29;;;;;;;4.45;1.48;;;;;;;17.36;100.00;100824.69;5083791;28;20109;-55
2023/07/21 09:44:57;;;;;;;4.78;1.50;;;;;;;17.47;100.00;100827.41;5085048;28;20047;-56
2023/07/21 09:47:24;;;;;;;4.07;1.42;;;;;;;17.78;100.00;100825.16;5086044;28;20082;-57
2023/07/21 09:49:54;;;;;;;9.65;1.98;;;;;;;17.91;100.00;100814.41;5080602;28;20052;-57
2023/07/21 09:52:22;;;;;;;5.15;1.70;;;;;;;17.86;100.00;100806.72;5087966;28;20503;-56
2023/07/21 09:55:09;;;;;;;4.72;1.38;;;;;;;18.15;100.00;100804.53;5077234;28;20056;-56
2023/07/21 09:57:42;;;;;;;5.25;1.55;;;;;;;18.33;100.00;100804.09;5083754;28;20041;-57
2023/07/21 10:00:13;;;;;;;6.63;1.25;;;;;;;18.16;100.00;100798.22;5088461;28;20143;-56
2023/07/21 10:02:42;;;;;;;8.82;2.28;;;;;;;18.08;100.00;100795.28;5084871;28;20044;-57
2023/07/21 10:05:10;;;;;;;7.18;2.25;;;;;;;18.34;100.00;100797.75;5085264;28;20044;-56
2023/07/21 10:07:42;;;;;;;3.22;0.98;;;;;;;18.34;100.00;100797.75;5083647;28;20131;-56
2023/07/21 10:10:10;;;;;;;4.63;1.48;;;;;;;18.58;100.00;100788.78;5088045;28;20076;-57
2023/07/21 10:12:56;;;;;;;3.85;1.65;;;;;;;18.66;100.00;100791.72;5083950;28;20052;-56
2023/07/21 10:15:31;;;;;;;4.93;1.40;;;;;;;19.02;100.00;100787.09;5079632;28;20135;-56
2023/07/21 10:18:10;;;;;;;4.72;1.00;;;;;;;19.22;100.00;100780.09;5085870;28;20160;-55
2023/07/21 10:20:49;;;;;;;3.65;1.20;;;;;;;19.62;100.00;100772.31;5087248;28;20583;-56
2023/07/21 10:23:18;;;;;;;3.60;1.60;;;;;;;19.83;100.00;100767.97;5073489;28;20044;-56
2023/07/21 10:25:51;;;;;;;5.65;1.35;;;;;;;19.75;100.00;100765.94;5083074;28;20063;-56
2023/07/21 10:28:30;;;;;;;7.70;1.80;;;;;;;20.10;100.00;100765.63;5087610;28;20130;-56
2023/07/21 10:31:24;;;;;;;6.30;1.33;;;;;;;20.22;100.00;100758.38;5083810;28;20553;-56
2023/07/21 10:34:09;;;;;;;2.90;0.82;;;;;;;20.19;100.00;100758.63;5067584;28;20045;-56
2023/07/21 10:36:51;;;;;;;2.97;1.15;;;;;;;20.38;100.00;100755.19;5080167;28;20132;-56
2023/07/21 10:39:22;;;;;;;5.38;1.00;;;;;;;20.62;100.00;100762.94;5080974;28;20130;-56
2023/07/21 10:41:54;;;;;;;10.35;1.55;;;;;;;20.53;100.00;100758.38;5085672;28;20770;-57
2023/07/21 10:44:22;;;;;;;3.47;1.50;;;;;;;20.45;100.00;100752.81;5084057;28;20048;-57
2023/07/21 10:46:51;;;;;;;3.42;1.50;;;;;;;20.18;100.00;100757.75;5087331;28;20554;-56
2023/07/21 10:49:19;;;;;;;2.85;0.98;;;;;;;20.14;100.00;100755.50;5081272;28;20052;-57
2023/07/21 10:51:48;;;;;;;12.95;2.80;;;;;;;20.22;100.00;100749.44;5084234;28;20067;-57
2023/07/21 10:54:16;;;;;;;3.80;1.58;;;;;;;20.43;100.00;100741.38;5089766;28;20044;-56
2023/07/21 10:56:44;;;;;;;3.17;1.17;;;;;;;20.53;100.00;100742.25;5084016;28;20103;-56
2023/07/21 10:59:12;;;;;;;3.88;1.58;;;;;;;20.49;100.00;100736.31;5084281;28;20055;-56
2023/07/21 11:01:45;;;;;;;6.55;1.85;;;;;;;20.66;100.00;100732.19;5086572;28;20411;-56
2023/07/21 11:04:13;;;;;;;4.32;1.42;;;;;;;20.40;100.00;100722.84;5086946;28;20083;-56
2023/07/21 11:06:50;;;;;;;5.22;1.92;;;;;;;20.36;100.00;100717.75;5083239;28;20039;-56
2023/07/21 11:09:17;;;;;;;8.35;2.25;;;;;;;20.46;100.00;100722.31;5084755;28;20070;-56
2023/07/21 11:11:46;;;;;;;9.85;2.55;;;;;;;20.24;100.00;100729.56;5077355;28;20048;-56
2023/07/21 11:14:14;;;;;;;8.45;1.77;;;;;;;20.16;100.00;100727.53;5084387;28;20112;-57
2023/07/21 11:16:49;;;;;;;5.40;1.38;;;;;;;20.08;100.00;100729.19;5084868;28;20082;-56
2023/07/21 11:19:16;;;;;;;13.75;2.85;;;;;;;20.03;100.00;100728.75;5071349;28;20044;-57
2023/07/21 11:21:43;;;;;;;16.80;2.00;;;;;;;20.13;100.00;100729.66;5076156;28;20060;-56